TimeCDT,TemperatureF,Dew PointF,Humidity,Sea Level PressureIn,VisibilityMPH,Wind Direction,Wind SpeedMPH,Gust SpeedMPH,PrecipitationIn,Events,Conditions,WindDirDegrees,DateUTC
12:58 AM,72.7,72.7,100,30.05,10.0,SW,5.8,-,N/A,,Clear,220,2013-08-28 05:58:00
1:58 AM,71.8,71.8,100,30.04,10.0,SW,4.6,-,N/A,,Clear,230,2013-08-28 06:58:00
2:58 AM,71.2,71.2,100,30.03,10.0,WSW,4.6,-,N/A,,Clear,240,2013-08-28 07:58:00
3:58 AM,71.8,71.8,100,30.03,10.0,West,4.6,-,N/A,,Clear,260,2013-08-28 08:58:00
4:58 AM,71.1,71.1,100,30.04,10.0,SW,2.3,-,N/A,,Clear,230,2013-08-28 09:58:00
5:58 AM,70.0,70.0,100,30.05,10.0,WSW,2.3,-,N/A,,Clear,250,2013-08-28 10:58:00
6:58 AM,70.5,70.5,100,30.07,10.0,WSW,5.8,-,N/A,,Clear,240,2013-08-28 11:58:00
7:58 AM,73.9,73.8,99,30.07,10.0,SW,4.6,-,N/A,,Clear,230,2013-08-28 12:58:00
8:58 AM,78.1,71.4,80,30.07,10.0,West,9.2,-,N/A,,Clear,270,2013-08-28 13:58:00
9:58 AM,82.2,72.3,72,30.07,10.0,West,10.4,-,N/A,,Clear,280,2013-08-28 14:58:00
10:58 AM,84.7,70.2,61,30.06,10.0,West,12.7,-,N/A,,Clear,260,2013-08-28 15:58:00
11:58 AM,86.5,71.2,60,30.06,10.0,West,9.2,-,N/A,,Clear,260,2013-08-28 16:58:00
12:58 PM,88.0,70.9,57,30.05,10.0,West,9.2,-,N/A,,Clear,270,2013-08-28 17:58:00
1:58 PM,88.9,70.9,55,30.04,10.0,West,9.2,-,N/A,,Clear,260,2013-08-28 18:58:00
2:58 PM,89.4,69.6,52,30.02,10.0,West,9.2,-,N/A,,Clear,270,2013-08-28 19:58:00
3:58 PM,89.4,69.1,51,30.01,10.0,West,8.1,-,N/A,,Clear,260,2013-08-28 20:58:00
4:58 PM,89.1,70.2,53,30.01,10.0,West,8.1,-,N/A,,Clear,270,2013-08-28 21:58:00
5:58 PM,87.6,69.6,55,30.01,10.0,West,6.9,-,N/A,,Clear,260,2013-08-28 22:58:00
6:58 PM,85.1,70.7,62,30.01,10.0,West,5.8,-,N/A,,Clear,260,2013-08-28 23:58:00
7:58 PM,81.5,73.0,75,30.01,10.0,WSW,5.8,-,N/A,,Clear,240,2013-08-29 00:58:00
8:58 PM,79.7,73.8,82,30.02,10.0,WSW,4.6,-,N/A,,Clear,240,2013-08-29 01:58:00
9:58 PM,77.7,74.3,89,30.03,10.0,WSW,6.9,-,N/A,,Clear,250,2013-08-29 02:58:00
10:58 PM,75.7,74.7,96,30.03,9.0,WSW,4.6,-,N/A,,Clear,240,2013-08-29 03:58:00
11:58 PM,75.2,73.9,96,30.02,10.0,WSW,6.9,-,N/A,,Clear,240,2013-08-29 04:58:00